sensor_id;sensor_type;location;lat;lon;timestamp;P1;P2;P0
64631;PMS5003;58358;50.936;0.246;2022-08-23T00:02:08;8;8;
64631;PMS5003;58358;50.936;0.246;2022-08-23T00:04:31;10;10;
64631;PMS5003;58358;50.936;0.246;2022-08-23T00:06:55;11;11;
64631;PMS5003;58358;50.936;0.246;2022-08-23T00:09:22;11;11;
64631;PMS5003;58358;50.936;0.246;2022-08-23T00:11:47;12;12;
64631;PMS5003;58358;50.936;0.246;2022-08-23T00:14:13;12;12;
64631;PMS5003;58358;50.936;0.246;2022-08-23T00:16:38;11;11;
64631;PMS5003;58358;50.936;0.246;2022-08-23T00:19:04;9;9;
64631;PMS5003;58358;50.936;0.246;2022-08-23T00:21:28;11;11;
64631;PMS5003;58358;50.936;0.246;2022-08-23T00:23:54;9;9;
64631;PMS5003;58358;50.936;0.246;2022-08-23T00:26:20;10;10;
64631;PMS5003;58358;50.936;0.246;2022-08-23T00:28:45;10;10;
64631;PMS5003;58358;50.936;0.246;2022-08-23T00:31:10;11;11;
64631;PMS5003;58358;50.936;0.246;2022-08-23T00:33:36;11;10;
64631;PMS5003;58358;50.936;0.246;2022-08-23T00:36:02;10;9;
64631;PMS5003;58358;50.936;0.246;2022-08-23T00:38:29;14;13;
64631;PMS5003;58358;50.936;0.246;2022-08-23T00:40:53;7;7;
64631;PMS5003;58358;50.936;0.246;2022-08-23T00:43:21;8;8;
64631;PMS5003;58358;50.936;0.246;2022-08-23T00:45:46;9;6;
64631;PMS5003;58358;50.936;0.246;2022-08-23T00:48:11;5;5;
64631;PMS5003;58358;50.936;0.246;2022-08-23T00:50:37;7;6;
64631;PMS5003;58358;50.936;0.246;2022-08-23T00:53:03;7;7;
64631;PMS5003;58358;50.936;0.246;2022-08-23T00:55:27;4;4;
64631;PMS5003;58358;50.936;0.246;2022-08-23T00:57:52;6;6;
64631;PMS5003;58358;50.936;0.246;2022-08-23T01:00:18;5;5;
64631;PMS5003;58358;50.936;0.246;2022-08-23T01:02:44;7;6;
64631;PMS5003;58358;50.936;0.246;2022-08-23T01:05:09;6;6;
64631;PMS5003;58358;50.936;0.246;2022-08-23T01:07:38;7;7;
64631;PMS5003;58358;50.936;0.246;2022-08-23T01:10:02;6;6;
64631;PMS5003;58358;50.936;0.246;2022-08-23T01:12:31;6;6;
64631;PMS5003;58358;50.936;0.246;2022-08-23T01:14:53;5;5;
64631;PMS5003;58358;50.936;0.246;2022-08-23T01:17:18;5;4;
64631;PMS5003;58358;50.936;0.246;2022-08-23T01:19:45;8;8;
64631;PMS5003;58358;50.936;0.246;2022-08-23T01:22:10;7;6;
64631;PMS5003;58358;50.936;0.246;2022-08-23T01:24:33;4;4;
64631;PMS5003;58358;50.936;0.246;2022-08-23T01:26:59;5;5;
64631;PMS5003;58358;50.936;0.246;2022-08-23T01:29:25;9;7;
64631;PMS5003;58358;50.936;0.246;2022-08-23T01:31:50;5;5;
64631;PMS5003;58358;50.936;0.246;2022-08-23T01:34:16;4;4;
64631;PMS5003;58358;50.936;0.246;2022-08-23T01:36:43;6;6;
64631;PMS5003;58358;50.936;0.246;2022-08-23T01:39:07;7;7;
64631;PMS5003;58358;50.936;0.246;2022-08-23T01:41:32;4;3;
64631;PMS5003;58358;50.936;0.246;2022-08-23T01:43:58;8;8;
64631;PMS5003;58358;50.936;0.246;2022-08-23T01:46:24;5;5;
64631;PMS5003;58358;50.936;0.246;2022-08-23T01:48:52;5;5;
64631;PMS5003;58358;50.936;0.246;2022-08-23T01:51:15;9;8;
64631;PMS5003;58358;50.936;0.246;2022-08-23T01:53:40;6;5;
64631;PMS5003;58358;50.936;0.246;2022-08-23T01:56:06;6;6;
64631;PMS5003;58358;50.936;0.246;2022-08-23T01:58:31;5;5;
64631;PMS5003;58358;50.936;0.246;2022-08-23T02:00:57;3;3;
64631;PMS5003;58358;50.936;0.246;2022-08-23T02:03:23;5;5;
64631;PMS5003;58358;50.936;0.246;2022-08-23T02:05:48;9;8;
64631;PMS5003;58358;50.936;0.246;2022-08-23T02:08:13;5;5;
64631;PMS5003;58358;50.936;0.246;2022-08-23T02:10:40;10;7;
64631;PMS5003;58358;50.936;0.246;2022-08-23T02:13:04;7;7;
64631;PMS5003;58358;50.936;0.246;2022-08-23T02:15:30;3;3;
64631;PMS5003;58358;50.936;0.246;2022-08-23T02:17:56;8;8;
64631;PMS5003;58358;50.936;0.246;2022-08-23T02:20:21;7;6;
64631;PMS5003;58358;50.936;0.246;2022-08-23T02:22:48;8;8;
64631;PMS5003;58358;50.936;0.246;2022-08-23T02:25:12;7;7;
64631;PMS5003;58358;50.936;0.246;2022-08-23T02:27:37;8;7;
64631;PMS5003;58358;50.936;0.246;2022-08-23T02:30:03;6;6;
64631;PMS5003;58358;50.936;0.246;2022-08-23T02:32:28;4;4;
64631;PMS5003;58358;50.936;0.246;2022-08-23T02:34:54;8;6;
64631;PMS5003;58358;50.936;0.246;2022-08-23T02:37:20;7;7;
64631;PMS5003;58358;50.936;0.246;2022-08-23T02:39:46;7;7;
64631;PMS5003;58358;50.936;0.246;2022-08-23T02:42:11;9;7;
64631;PMS5003;58358;50.936;0.246;2022-08-23T02:44:37;10;7;
64631;PMS5003;58358;50.936;0.246;2022-08-23T02:47:02;12;10;
64631;PMS5003;58358;50.936;0.246;2022-08-23T02:49:27;7;7;
64631;PMS5003;58358;50.936;0.246;2022-08-23T02:51:53;9;7;
64631;PMS5003;58358;50.936;0.246;2022-08-23T02:54:18;10;8;
64631;PMS5003;58358;50.936;0.246;2022-08-23T02:56:45;6;6;
64631;PMS5003;58358;50.936;0.246;2022-08-23T02:59:10;7;6;
64631;PMS5003;58358;50.936;0.246;2022-08-23T03:01:36;7;7;
64631;PMS5003;58358;50.936;0.246;2022-08-23T03:04:04;9;9;
64631;PMS5003;58358;50.936;0.246;2022-08-23T03:06:26;8;7;
64631;PMS5003;58358;50.936;0.246;2022-08-23T03:08:52;7;7;
64631;PMS5003;58358;50.936;0.246;2022-08-23T03:11:18;7;7;
64631;PMS5003;58358;50.936;0.246;2022-08-23T03:13:43;7;7;
64631;PMS5003;58358;50.936;0.246;2022-08-23T03:16:08;8;7;
64631;PMS5003;58358;50.936;0.246;2022-08-23T03:18:34;7;7;
64631;PMS5003;58358;50.936;0.246;2022-08-23T03:21:00;13;10;
64631;PMS5003;58358;50.936;0.246;2022-08-23T03:23:25;13;10;
64631;PMS5003;58358;50.936;0.246;2022-08-23T03:25:50;7;7;
64631;PMS5003;58358;50.936;0.246;2022-08-23T03:28:16;9;8;
64631;PMS5003;58358;50.936;0.246;2022-08-23T03:30:41;8;7;
64631;PMS5003;58358;50.936;0.246;2022-08-23T03:33:07;7;6;
64631;PMS5003;58358;50.936;0.246;2022-08-23T03:35:33;9;7;
64631;PMS5003;58358;50.936;0.246;2022-08-23T03:37:58;10;8;
64631;PMS5003;58358;50.936;0.246;2022-08-23T03:40:24;6;6;
64631;PMS5003;58358;50.936;0.246;2022-08-23T03:42:50;6;6;
64631;PMS5003;58358;50.936;0.246;2022-08-23T03:45:15;6;6;
64631;PMS5003;58358;50.936;0.246;2022-08-23T03:47:40;6;6;
64631;PMS5003;58358;50.936;0.246;2022-08-23T03:50:07;7;7;
64631;PMS5003;58358;50.936;0.246;2022-08-23T03:52:31;7;7;
64631;PMS5003;58358;50.936;0.246;2022-08-23T03:54:57;7;7;
64631;PMS5003;58358;50.936;0.246;2022-08-23T03:57:23;9;9;
64631;PMS5003;58358;50.936;0.246;2022-08-23T03:59:48;8;8;
64631;PMS5003;58358;50.936;0.246;2022-08-23T04:02:14;7;6;
64631;PMS5003;58358;50.936;0.246;2022-08-23T04:04:40;7;7;
64631;PMS5003;58358;50.936;0.246;2022-08-23T04:07:07;9;9;
64631;PMS5003;58358;50.936;0.246;2022-08-23T04:09:31;8;8;
64631;PMS5003;58358;50.936;0.246;2022-08-23T04:11:56;7;6;
64631;PMS5003;58358;50.936;0.246;2022-08-23T04:14:22;8;7;
64631;PMS5003;58358;50.936;0.246;2022-08-23T04:16:48;7;7;
64631;PMS5003;58358;50.936;0.246;2022-08-23T04:19:14;6;6;
64631;PMS5003;58358;50.936;0.246;2022-08-23T04:21:40;6;6;
64631;PMS5003;58358;50.936;0.246;2022-08-23T04:24:05;6;6;
64631;PMS5003;58358;50.936;0.246;2022-08-23T04:26:30;5;5;
64631;PMS5003;58358;50.936;0.246;2022-08-23T04:28:56;6;6;
64631;PMS5003;58358;50.936;0.246;2022-08-23T04:31:21;6;6;
64631;PMS5003;58358;50.936;0.246;2022-08-23T04:33:47;6;6;
64631;PMS5003;58358;50.936;0.246;2022-08-23T04:36:12;6;6;
64631;PMS5003;58358;50.936;0.246;2022-08-23T04:38:38;6;6;
64631;PMS5003;58358;50.936;0.246;2022-08-23T04:41:04;5;5;
64631;PMS5003;58358;50.936;0.246;2022-08-23T04:43:29;5;5;
64631;PMS5003;58358;50.936;0.246;2022-08-23T04:45:55;2;2;
64631;PMS5003;58358;50.936;0.246;2022-08-23T04:48:21;4;4;
64631;PMS5003;58358;50.936;0.246;2022-08-23T04:50:46;8;6;
64631;PMS5003;58358;50.936;0.246;2022-08-23T04:53:12;4;4;
64631;PMS5003;58358;50.936;0.246;2022-08-23T04:55:38;4;4;
64631;PMS5003;58358;50.936;0.246;2022-08-23T04:58:03;9;8;
64631;PMS5003;58358;50.936;0.246;2022-08-23T05:00:29;6;5;
64631;PMS5003;58358;50.936;0.246;2022-08-23T05:02:55;6;5;
64631;PMS5003;58358;50.936;0.246;2022-08-23T05:05:20;4;4;
64631;PMS5003;58358;50.936;0.246;2022-08-23T05:07:47;5;5;
64631;PMS5003;58358;50.936;0.246;2022-08-23T05:10:12;5;5;
64631;PMS5003;58358;50.936;0.246;2022-08-23T05:12:37;6;6;
64631;PMS5003;58358;50.936;0.246;2022-08-23T05:15:03;4;3;
64631;PMS5003;58358;50.936;0.246;2022-08-23T05:17:29;4;4;
64631;PMS5003;58358;50.936;0.246;2022-08-23T05:19:54;3;3;
64631;PMS5003;58358;50.936;0.246;2022-08-23T05:22:20;6;6;
64631;PMS5003;58358;50.936;0.246;2022-08-23T05:24:45;3;3;
64631;PMS5003;58358;50.936;0.246;2022-08-23T05:27:11;4;4;
64631;PMS5003;58358;50.936;0.246;2022-08-23T05:29:37;6;6;
64631;PMS5003;58358;50.936;0.246;2022-08-23T05:32:02;4;4;
64631;PMS5003;58358;50.936;0.246;2022-08-23T05:34:28;4;4;
64631;PMS5003;58358;50.936;0.246;2022-08-23T05:36:54;5;5;
64631;PMS5003;58358;50.936;0.246;2022-08-23T05:39:19;7;7;
64631;PMS5003;58358;50.936;0.246;2022-08-23T05:41:45;5;5;
64631;PMS5003;58358;50.936;0.246;2022-08-23T05:44:11;3;3;
64631;PMS5003;58358;50.936;0.246;2022-08-23T05:46:37;7;6;
64631;PMS5003;58358;50.936;0.246;2022-08-23T05:49:02;5;5;
64631;PMS5003;58358;50.936;0.246;2022-08-23T05:51:28;8;8;
64631;PMS5003;58358;50.936;0.246;2022-08-23T05:53:55;5;5;
64631;PMS5003;58358;50.936;0.246;2022-08-23T05:56:21;4;4;
64631;PMS5003;58358;50.936;0.246;2022-08-23T05:58:45;5;5;
64631;PMS5003;58358;50.936;0.246;2022-08-23T06:01:11;6;6;
64631;PMS5003;58358;50.936;0.246;2022-08-23T06:03:36;5;5;
64631;PMS5003;58358;50.936;0.246;2022-08-23T06:06:02;6;6;
64631;PMS5003;58358;50.936;0.246;2022-08-23T06:08:29;5;5;
64631;PMS5003;58358;50.936;0.246;2022-08-23T06:13:18;6;6;
64631;PMS5003;58358;50.936;0.246;2022-08-23T06:15:44;6;5;
64631;PMS5003;58358;50.936;0.246;2022-08-23T06:18:10;5;5;
64631;PMS5003;58358;50.936;0.246;2022-08-23T06:20:35;5;5;
64631;PMS5003;58358;50.936;0.246;2022-08-23T06:23:04;4;4;
64631;PMS5003;58358;50.936;0.246;2022-08-23T06:25:27;8;6;
64631;PMS5003;58358;50.936;0.246;2022-08-23T06:27:52;7;7;
64631;PMS5003;58358;50.936;0.246;2022-08-23T06:30:19;14;13;
64631;PMS5003;58358;50.936;0.246;2022-08-23T06:32:44;6;5;
64631;PMS5003;58358;50.936;0.246;2022-08-23T06:35:09;5;5;
64631;PMS5003;58358;50.936;0.246;2022-08-23T06:37:35;5;5;
64631;PMS5003;58358;50.936;0.246;2022-08-23T06:40:01;7;7;
64631;PMS5003;58358;50.936;0.246;2022-08-23T06:42:27;5;5;
64631;PMS5003;58358;50.936;0.246;2022-08-23T06:44:52;6;5;
64631;PMS5003;58358;50.936;0.246;2022-08-23T06:47:18;6;6;
64631;PMS5003;58358;50.936;0.246;2022-08-23T06:49:43;4;4;
64631;PMS5003;58358;50.936;0.246;2022-08-23T06:52:09;7;7;
64631;PMS5003;58358;50.936;0.246;2022-08-23T06:54:34;4;4;
64631;PMS5003;58358;50.936;0.246;2022-08-23T06:57:00;3;3;
64631;PMS5003;58358;50.936;0.246;2022-08-23T06:59:26;3;3;
64631;PMS5003;58358;50.936;0.246;2022-08-23T07:01:52;6;6;
64631;PMS5003;58358;50.936;0.246;2022-08-23T07:04:18;6;6;
64631;PMS5003;58358;50.936;0.246;2022-08-23T07:06:42;5;5;
64631;PMS5003;58358;50.936;0.246;2022-08-23T07:09:08;4;4;
64631;PMS5003;58358;50.936;0.246;2022-08-23T07:11:34;4;4;
64631;PMS5003;58358;50.936;0.246;2022-08-23T07:13:59;5;5;
64631;PMS5003;58358;50.936;0.246;2022-08-23T07:16:25;5;5;
64631;PMS5003;58358;50.936;0.246;2022-08-23T07:18:50;5;5;
64631;PMS5003;58358;50.936;0.246;2022-08-23T07:21:16;6;5;
64631;PMS5003;58358;50.936;0.246;2022-08-23T07:23:42;4;4;
64631;PMS5003;58358;50.936;0.246;2022-08-23T07:26:09;5;5;
64631;PMS5003;58358;50.936;0.246;2022-08-23T07:28:33;6;6;
64631;PMS5003;58358;50.936;0.246;2022-08-23T07:33:24;4;4;
64631;PMS5003;58358;50.936;0.246;2022-08-23T07:35:50;5;5;
64631;PMS5003;58358;50.936;0.246;2022-08-23T07:38:16;4;4;
64631;PMS5003;58358;50.936;0.246;2022-08-23T07:40:41;6;6;
64631;PMS5003;58358;50.936;0.246;2022-08-23T07:43:07;5;5;
64631;PMS5003;58358;50.936;0.246;2022-08-23T07:45:32;8;5;
64631;PMS5003;58358;50.936;0.246;2022-08-23T07:47:59;5;5;
64631;PMS5003;58358;50.936;0.246;2022-08-23T07:50:23;6;6;
64631;PMS5003;58358;50.936;0.246;2022-08-23T07:52:49;5;5;
64631;PMS5003;58358;50.936;0.246;2022-08-23T07:55:15;6;5;
64631;PMS5003;58358;50.936;0.246;2022-08-23T07:57:40;5;4;
64631;PMS5003;58358;50.936;0.246;2022-08-23T08:00:07;6;5;
64631;PMS5003;58358;50.936;0.246;2022-08-23T08:02:31;6;5;
64631;PMS5003;58358;50.936;0.246;2022-08-23T08:04:57;5;5;
64631;PMS5003;58358;50.936;0.246;2022-08-23T08:07:22;7;6;
64631;PMS5003;58358;50.936;0.246;2022-08-23T08:09:48;5;5;
64631;PMS5003;58358;50.936;0.246;2022-08-23T08:12:14;6;6;
64631;PMS5003;58358;50.936;0.246;2022-08-23T08:14:39;6;6;
64631;PMS5003;58358;50.936;0.246;2022-08-23T08:17:05;4;4;
64631;PMS5003;58358;50.936;0.246;2022-08-23T08:19:31;8;8;
64631;PMS5003;58358;50.936;0.246;2022-08-23T08:21:56;6;6;
64631;PMS5003;58358;50.936;0.246;2022-08-23T08:24:22;7;7;
64631;PMS5003;58358;50.936;0.246;2022-08-23T08:26:47;4;3;
64631;PMS5003;58358;50.936;0.246;2022-08-23T08:29:13;6;6;
64631;PMS5003;58358;50.936;0.246;2022-08-23T08:31:39;4;4;
64631;PMS5003;58358;50.936;0.246;2022-08-23T08:34:04;5;5;
64631;PMS5003;58358;50.936;0.246;2022-08-23T08:36:31;5;5;
64631;PMS5003;58358;50.936;0.246;2022-08-23T08:38:55;7;7;
64631;PMS5003;58358;50.936;0.246;2022-08-23T08:41:22;7;7;
64631;PMS5003;58358;50.936;0.246;2022-08-23T08:43:50;5;5;
64631;PMS5003;58358;50.936;0.246;2022-08-23T08:46:16;6;6;
64631;PMS5003;58358;50.936;0.246;2022-08-23T08:48:41;6;6;
64631;PMS5003;58358;50.936;0.246;2022-08-23T08:51:05;7;6;
64631;PMS5003;58358;50.936;0.246;2022-08-23T08:53:30;3;3;
64631;PMS5003;58358;50.936;0.246;2022-08-23T08:55:56;5;5;
64631;PMS5003;58358;50.936;0.246;2022-08-23T08:58:21;6;5;
64631;PMS5003;58358;50.936;0.246;2022-08-23T09:00:46;3;3;
64631;PMS5003;58358;50.936;0.246;2022-08-23T09:03:12;8;5;
64631;PMS5003;58358;50.936;0.246;2022-08-23T09:05:37;4;4;
64631;PMS5003;58358;50.936;0.246;2022-08-23T09:08:07;5;3;
64631;PMS5003;58358;50.936;0.246;2022-08-23T09:12:55;3;3;
64631;PMS5003;58358;50.936;0.246;2022-08-23T09:15:21;3;3;
64631;PMS5003;58358;50.936;0.246;2022-08-23T09:17:46;3;3;
64631;PMS5003;58358;50.936;0.246;2022-08-23T09:20:12;4;4;
64631;PMS5003;58358;50.936;0.246;2022-08-23T09:22:37;4;4;
64631;PMS5003;58358;50.936;0.246;2022-08-23T09:25:02;4;3;
64631;PMS5003;58358;50.936;0.246;2022-08-23T09:27:29;4;4;
64631;PMS5003;58358;50.936;0.246;2022-08-23T09:29:54;3;3;
64631;PMS5003;58358;50.936;0.246;2022-08-23T09:34:44;3;3;
64631;PMS5003;58358;50.936;0.246;2022-08-23T09:37:11;2;2;
64631;PMS5003;58358;50.936;0.246;2022-08-23T09:39:38;4;4;
64631;PMS5003;58358;50.936;0.246;2022-08-23T09:42:01;4;4;
64631;PMS5003;58358;50.936;0.246;2022-08-23T09:44:32;4;4;
64631;PMS5003;58358;50.936;0.246;2022-08-23T09:46:53;4;3;
64631;PMS5003;58358;50.936;0.246;2022-08-23T09:49:21;4;4;
64631;PMS5003;58358;50.936;0.246;2022-08-23T09:51:46;8;8;
64631;PMS5003;58358;50.936;0.246;2022-08-23T09:54:11;4;4;
64631;PMS5003;58358;50.936;0.246;2022-08-23T09:56:36;2;2;
64631;PMS5003;58358;50.936;0.246;2022-08-23T09:59:00;4;3;
64631;PMS5003;58358;50.936;0.246;2022-08-23T10:01:27;3;3;
64631;PMS5003;58358;50.936;0.246;2022-08-23T10:11:11;3;3;
64631;PMS5003;58358;50.936;0.246;2022-08-23T10:13:33;4;4;
64631;PMS5003;58358;50.936;0.246;2022-08-23T10:16:01;2;2;
64631;PMS5003;58358;50.936;0.246;2022-08-23T10:18:32;4;4;
64631;PMS5003;58358;50.936;0.246;2022-08-23T10:20:53;2;2;
64631;PMS5003;58358;50.936;0.246;2022-08-23T10:23:18;2;2;
64631;PMS5003;58358;50.936;0.246;2022-08-23T10:25:44;5;5;
64631;PMS5003;58358;50.936;0.246;2022-08-23T10:28:10;5;5;
64631;PMS5003;58358;50.936;0.246;2022-08-23T10:30:39;4;3;
64631;PMS5003;58358;50.936;0.246;2022-08-23T10:32:59;3;3;
64631;PMS5003;58358;50.936;0.246;2022-08-23T10:35:25;3;2;
64631;PMS5003;58358;50.936;0.246;2022-08-23T10:37:54;4;4;
64631;PMS5003;58358;50.936;0.246;2022-08-23T10:40:15;5;5;
64631;PMS5003;58358;50.936;0.246;2022-08-23T10:42:42;6;6;
64631;PMS5003;58358;50.936;0.246;2022-08-23T10:45:09;4;4;
64631;PMS5003;58358;50.936;0.246;2022-08-23T10:47:32;5;4;
64631;PMS5003;58358;50.936;0.246;2022-08-23T10:49:57;4;4;
64631;PMS5003;58358;50.936;0.246;2022-08-23T10:52:26;3;3;
64631;PMS5003;58358;50.936;0.246;2022-08-23T10:54:49;3;3;
64631;PMS5003;58358;50.936;0.246;2022-08-23T10:57:13;4;4;
64631;PMS5003;58358;50.936;0.246;2022-08-23T10:59:38;3;3;
64631;PMS5003;58358;50.936;0.246;2022-08-23T11:02:06;4;2;
64631;PMS5003;58358;50.936;0.246;2022-08-23T11:04:31;5;5;
64631;PMS5003;58358;50.936;0.246;2022-08-23T11:06:56;2;2;
64631;PMS5003;58358;50.936;0.246;2022-08-23T11:09:29;2;2;
64631;PMS5003;58358;50.936;0.246;2022-08-23T11:11:47;1;1;
64631;PMS5003;58358;50.936;0.246;2022-08-23T11:14:24;5;5;
64631;PMS5003;58358;50.936;0.246;2022-08-23T11:16:38;3;1;
64631;PMS5003;58358;50.936;0.246;2022-08-23T11:19:03;1;1;
64631;PMS5003;58358;50.936;0.246;2022-08-23T11:23:54;0;0;
64631;PMS5003;58358;50.936;0.246;2022-08-23T11:28:45;1;1;
64631;PMS5003;58358;50.936;0.246;2022-08-23T11:31:19;1;1;
64631;PMS5003;58358;50.936;0.246;2022-08-23T11:33:41;0;0;
64631;PMS5003;58358;50.936;0.246;2022-08-23T11:40:55;1;0;
64631;PMS5003;58358;50.936;0.246;2022-08-23T11:43:20;1;1;
64631;PMS5003;58358;50.936;0.246;2022-08-23T11:45:45;0;0;
64631;PMS5003;58358;50.936;0.246;2022-08-23T11:48:13;0;0;
64631;PMS5003;58358;50.936;0.246;2022-08-23T11:50:37;2;2;
64631;PMS5003;58358;50.936;0.246;2022-08-23T11:53:07;0;0;
64631;PMS5003;58358;50.936;0.246;2022-08-23T11:55:33;0;0;
64631;PMS5003;58358;50.936;0.246;2022-08-23T11:57:57;0;0;
64631;PMS5003;58358;50.936;0.246;2022-08-23T12:00:18;0;0;
64631;PMS5003;58358;50.936;0.246;2022-08-23T12:02:47;0;0;
64631;PMS5003;58358;50.936;0.246;2022-08-23T12:09:59;1;1;
64631;PMS5003;58358;50.936;0.246;2022-08-23T12:12:27;1;1;
64631;PMS5003;58358;50.936;0.246;2022-08-23T12:14:52;0;0;
64631;PMS5003;58358;50.936;0.246;2022-08-23T12:19:42;0;0;
64631;PMS5003;58358;50.936;0.246;2022-08-23T12:22:09;0;0;
64631;PMS5003;58358;50.936;0.246;2022-08-23T12:24:39;0;0;
64631;PMS5003;58358;50.936;0.246;2022-08-23T12:27:03;1;1;
64631;PMS5003;58358;50.936;0.246;2022-08-23T12:29:30;0;0;
64631;PMS5003;58358;50.936;0.246;2022-08-23T12:31:50;1;1;
64631;PMS5003;58358;50.936;0.246;2022-08-23T12:34:17;1;1;
64631;PMS5003;58358;50.936;0.246;2022-08-23T12:36:42;1;1;
64631;PMS5003;58358;50.936;0.246;2022-08-23T12:39:06;3;3;
64631;PMS5003;58358;50.936;0.246;2022-08-23T12:41:34;1;1;
64631;PMS5003;58358;50.936;0.246;2022-08-23T12:43:59;2;2;
64631;PMS5003;58358;50.936;0.246;2022-08-23T12:46:28;2;2;
64631;PMS5003;58358;50.936;0.246;2022-08-23T12:48:48;1;1;
64631;PMS5003;58358;50.936;0.246;2022-08-23T12:51:14;3;3;
64631;PMS5003;58358;50.936;0.246;2022-08-23T12:53:40;2;2;
64631;PMS5003;58358;50.936;0.246;2022-08-23T12:56:06;1;1;
64631;PMS5003;58358;50.936;0.246;2022-08-23T12:58:32;2;2;
64631;PMS5003;58358;50.936;0.246;2022-08-23T13:00:57;2;2;
64631;PMS5003;58358;50.936;0.246;2022-08-23T13:03:22;1;1;
64631;PMS5003;58358;50.936;0.246;2022-08-23T13:05:48;1;1;
64631;PMS5003;58358;50.936;0.246;2022-08-23T13:08:14;3;2;
64631;PMS5003;58358;50.936;0.246;2022-08-23T13:10:40;2;2;
64631;PMS5003;58358;50.936;0.246;2022-08-23T13:13:04;1;1;
64631;PMS5003;58358;50.936;0.246;2022-08-23T13:15:38;0;0;
64631;PMS5003;58358;50.936;0.246;2022-08-23T13:17:59;1;1;
64631;PMS5003;58358;50.936;0.246;2022-08-23T13:20:22;2;2;
64631;PMS5003;58358;50.936;0.246;2022-08-23T13:25:23;3;3;
64631;PMS5003;58358;50.936;0.246;2022-08-23T13:27:49;2;2;
64631;PMS5003;58358;50.936;0.246;2022-08-23T13:30:19;6;6;
64631;PMS5003;58358;50.936;0.246;2022-08-23T13:32:31;2;2;
64631;PMS5003;58358;50.936;0.246;2022-08-23T13:35:03;2;2;
64631;PMS5003;58358;50.936;0.246;2022-08-23T13:37:22;4;4;
64631;PMS5003;58358;50.936;0.246;2022-08-23T13:39:46;2;2;
64631;PMS5003;58358;50.936;0.246;2022-08-23T13:42:11;4;4;
64631;PMS5003;58358;50.936;0.246;2022-08-23T13:44:37;2;2;
64631;PMS5003;58358;50.936;0.246;2022-08-23T13:47:03;4;4;
64631;PMS5003;58358;50.936;0.246;2022-08-23T13:49:28;2;2;
64631;PMS5003;58358;50.936;0.246;2022-08-23T13:52:03;4;4;
64631;PMS5003;58358;50.936;0.246;2022-08-23T13:54:19;3;3;
64631;PMS5003;58358;50.936;0.246;2022-08-23T13:56:45;1;1;
64631;PMS5003;58358;50.936;0.246;2022-08-23T14:01:36;2;2;
64631;PMS5003;58358;50.936;0.246;2022-08-23T14:04:01;3;3;
64631;PMS5003;58358;50.936;0.246;2022-08-23T14:06:27;9;8;
64631;PMS5003;58358;50.936;0.246;2022-08-23T14:08:52;5;5;
64631;PMS5003;58358;50.936;0.246;2022-08-23T14:11:18;6;6;
64631;PMS5003;58358;50.936;0.246;2022-08-23T14:13:44;7;4;
64631;PMS5003;58358;50.936;0.246;2022-08-23T14:16:09;2;2;
64631;PMS5003;58358;50.936;0.246;2022-08-23T14:18:35;8;8;
64631;PMS5003;58358;50.936;0.246;2022-08-23T14:21:00;7;5;
64631;PMS5003;58358;50.936;0.246;2022-08-23T14:23:26;4;4;
64631;PMS5003;58358;50.936;0.246;2022-08-23T14:25:52;3;3;
64631;PMS5003;58358;50.936;0.246;2022-08-23T14:28:17;3;3;
64631;PMS5003;58358;50.936;0.246;2022-08-23T14:30:43;7;7;
64631;PMS5003;58358;50.936;0.246;2022-08-23T14:33:08;2;2;
64631;PMS5003;58358;50.936;0.246;2022-08-23T14:35:33;3;3;
64631;PMS5003;58358;50.936;0.246;2022-08-23T14:37:59;3;3;
64631;PMS5003;58358;50.936;0.246;2022-08-23T14:40:25;3;3;
64631;PMS5003;58358;50.936;0.246;2022-08-23T14:42:50;2;2;
64631;PMS5003;58358;50.936;0.246;2022-08-23T14:45:17;4;4;
64631;PMS5003;58358;50.936;0.246;2022-08-23T14:47:42;1;1;
64631;PMS5003;58358;50.936;0.246;2022-08-23T14:50:08;2;2;
64631;PMS5003;58358;50.936;0.246;2022-08-23T14:52:34;7;7;
64631;PMS5003;58358;50.936;0.246;2022-08-23T14:54:58;1;1;
64631;PMS5003;58358;50.936;0.246;2022-08-23T14:57:24;4;4;
64631;PMS5003;58358;50.936;0.246;2022-08-23T14:59:49;3;3;
64631;PMS5003;58358;50.936;0.246;2022-08-23T15:02:15;6;6;
64631;PMS5003;58358;50.936;0.246;2022-08-23T15:04:42;2;2;
64631;PMS5003;58358;50.936;0.246;2022-08-23T15:07:06;4;4;
64631;PMS5003;58358;50.936;0.246;2022-08-23T15:09:31;2;2;
64631;PMS5003;58358;50.936;0.246;2022-08-23T15:11:57;4;4;
64631;PMS5003;58358;50.936;0.246;2022-08-23T15:14:22;5;4;
64631;PMS5003;58358;50.936;0.246;2022-08-23T15:16:48;3;3;
64631;PMS5003;58358;50.936;0.246;2022-08-23T15:19:14;4;4;
64631;PMS5003;58358;50.936;0.246;2022-08-23T15:21:39;4;4;
64631;PMS5003;58358;50.936;0.246;2022-08-23T15:24:05;4;4;
64631;PMS5003;58358;50.936;0.246;2022-08-23T15:26:30;4;4;
64631;PMS5003;58358;50.936;0.246;2022-08-23T15:28:56;3;3;
64631;PMS5003;58358;50.936;0.246;2022-08-23T15:31:22;3;3;
64631;PMS5003;58358;50.936;0.246;2022-08-23T15:33:47;3;3;
64631;PMS5003;58358;50.936;0.246;2022-08-23T15:36:14;4;4;
64631;PMS5003;58358;50.936;0.246;2022-08-23T15:38:39;4;4;
64631;PMS5003;58358;50.936;0.246;2022-08-23T15:41:04;3;3;
64631;PMS5003;58358;50.936;0.246;2022-08-23T15:43:29;5;5;
64631;PMS5003;58358;50.936;0.246;2022-08-23T15:45:55;7;7;
64631;PMS5003;58358;50.936;0.246;2022-08-23T15:48:22;2;2;
64631;PMS5003;58358;50.936;0.246;2022-08-23T15:50:46;3;3;
64631;PMS5003;58358;50.936;0.246;2022-08-23T15:53:12;7;7;
64631;PMS5003;58358;50.936;0.246;2022-08-23T15:55:37;3;3;
64631;PMS5003;58358;50.936;0.246;2022-08-23T15:58:03;3;3;
64631;PMS5003;58358;50.936;0.246;2022-08-23T16:00:28;2;2;
64631;PMS5003;58358;50.936;0.246;2022-08-23T16:02:56;1;1;
64631;PMS5003;58358;50.936;0.246;2022-08-23T16:05:20;2;2;
64631;PMS5003;58358;50.936;0.246;2022-08-23T16:07:45;2;2;
64631;PMS5003;58358;50.936;0.246;2022-08-23T16:10:17;3;3;
64631;PMS5003;58358;50.936;0.246;2022-08-23T16:12:36;2;2;
64631;PMS5003;58358;50.936;0.246;2022-08-23T16:15:02;3;3;
64631;PMS5003;58358;50.936;0.246;2022-08-23T16:17:27;3;3;
64631;PMS5003;58358;50.936;0.246;2022-08-23T16:19:53;2;2;
64631;PMS5003;58358;50.936;0.246;2022-08-23T16:22:18;1;1;
64631;PMS5003;58358;50.936;0.246;2022-08-23T16:24:44;3;3;
64631;PMS5003;58358;50.936;0.246;2022-08-23T16:27:10;4;4;
64631;PMS5003;58358;50.936;0.246;2022-08-23T16:29:35;2;2;
64631;PMS5003;58358;50.936;0.246;2022-08-23T16:32:01;7;5;
64631;PMS5003;58358;50.936;0.246;2022-08-23T16:34:26;4;4;
64631;PMS5003;58358;50.936;0.246;2022-08-23T16:36:53;3;3;
64631;PMS5003;58358;50.936;0.246;2022-08-23T16:39:19;4;4;
64631;PMS5003;58358;50.936;0.246;2022-08-23T16:41:43;5;5;
64631;PMS5003;58358;50.936;0.246;2022-08-23T16:44:09;7;7;
64631;PMS5003;58358;50.936;0.246;2022-08-23T16:46:35;5;5;
64631;PMS5003;58358;50.936;0.246;2022-08-23T16:49:00;7;7;
64631;PMS5003;58358;50.936;0.246;2022-08-23T16:51:26;6;5;
64631;PMS5003;58358;50.936;0.246;2022-08-23T16:53:51;7;6;
64631;PMS5003;58358;50.936;0.246;2022-08-23T16:56:17;11;8;
64631;PMS5003;58358;50.936;0.246;2022-08-23T16:58:43;9;7;
64631;PMS5003;58358;50.936;0.246;2022-08-23T17:01:09;7;7;
64631;PMS5003;58358;50.936;0.246;2022-08-23T17:03:34;7;7;
64631;PMS5003;58358;50.936;0.246;2022-08-23T17:06:00;5;5;
64631;PMS5003;58358;50.936;0.246;2022-08-23T17:08:25;5;5;
64631;PMS5003;58358;50.936;0.246;2022-08-23T17:10:51;5;5;
64631;PMS5003;58358;50.936;0.246;2022-08-23T17:13:16;7;7;
64631;PMS5003;58358;50.936;0.246;2022-08-23T17:15:42;9;9;
64631;PMS5003;58358;50.936;0.246;2022-08-23T17:18:08;6;6;